Historyczne dane pomiarowe

Dodano dane terminowe – wersja testowa.

Dane z okresu 1951-2019

Wersja bazy: 1.34 [2019-03-16, lista zmian], aktualizacja planowana na 2019-04-15

Dane meteo z obszaru Polski uzyskane na podstawie danych udostępnionych przez Instytut Meteorologii i Gospodarki Wodnej – Państwowy Instytut Badawczy.

 

Wybierz Datę:    

       

TemperaturaWilgotnośćZachmurzenieWiatrCiśnienieWidzialnośćZjawiska
 Data    tng td wb rh cc ccl cl cm ch dir g1 g2 mslp ppp      
1994-07-03 00:00:00 10.4--- 9.3 9.893wxwx0wx--1020.2 978.9 0.0---wx
1994-07-03 01:00:00 9.7--- 8.0 8.889wxwx0wx--1020.0 978.6----wx
1994-07-03 02:00:00 9.5--- 8.0 8.790wxwx0wx--1020.1 978.7----wx
1994-07-03 03:00:00 10.0--- 9.6 9.898wxwxwx0wx--1020.0 978.6----wx
1994-07-03 04:00:00 9.2--- 8.4 8.895wxwxwx1wx--1020.1 978.6----wx
1994-07-03 05:00:00 12.1--- 10.5 11.290wxwxwx0wx--1019.6 978.6----wx
1994-07-03 06:00:00 15.1--- 11.3 12.978wxwxwx0wx--1019.0 978.4 0.0---wx
1994-07-03 07:00:00 20.6--- 12.6 15.860wxwx0wx--1018.1 978.3----wx
1994-07-03 08:00:00 24.6--- 10.8 16.442wxwxwx0wx--1017.5 978.2----wx
1994-07-03 09:00:00 26.0--- 9.7 16.436wxwxwxwx0wx--1017.3 978.2----wx
1994-07-03 10:00:00 27.0--- 10.7 17.236wxwxwxwx0wx--1016.9 978.0----wx
1994-07-03 11:00:00 27.6--- 9.7 17.033wxwxwxwx1wx--1016.8 977.9----wx
1994-07-03 12:00:00 28.0--- 11.7 18.036wxwxwx1wx--1016.1 977.3 0.0---wx
1994-07-03 13:00:00 28.4--- 12.2 18.437wxwxwx2wx--1015.8 977.1----wx
1994-07-03 14:00:00 28.6--- 12.9 18.838wxwxwx1wx--1015.6 976.9----wx
1994-07-03 15:00:00 28.2--- 12.8 18.639wxwxwx0wx--1015.4 976.7----wx
1994-07-03 16:00:00 27.6--- 12.4 18.239wxwxwx1wx--1015.5 976.7----wx
1994-07-03 17:00:00 26.2--- 12.2 17.642wxwxwx0wx--1015.8 976.8----wx
1994-07-03 18:00:00 25.2--- 10.8 16.640wxwxwx2wx--1016.1 977.0 0.0---wx
1994-07-03 19:00:00 21.4--- 12.8 16.258wxwxwx1wx--1017.0 977.3----wx
1994-07-03 20:00:00 19.2--- 13.6 15.870wxwx0wx--1017.4 977.4----wx
1994-07-03 21:00:00 16.4--- 11.2 13.471wxwx0wx--1017.9 977.5----wx
1994-07-03 22:00:00 14.8--- 11.3 12.880wxwx0wx--1018.2 977.6----wx
1994-07-03 23:00:00 13.8--- 12.1 12.889wxwx0wx--1018.5 977.7----wx

 

Źródłem pochodzenia danych jest Instytut Meteorologii i Gospodarki Wodnej – Państwowy Instytut Badawczy. Dane Instytutu Meteorologii i Gospodarki Wodnej – Państwowego Instytutu Badawczego zostały przetworzone.

Dane źródłowe można odnaleźć na stronie https://dane.imgw.pl